createdAt,value
2023-04-29T00:00:10.416Z,55.18
2023-04-29T00:02:37.085Z,55.65
2023-04-29T00:05:05.467Z,56.36
2023-04-29T00:07:36.424Z,55.84
2023-04-29T00:10:03.326Z,55.81
2023-04-29T00:12:31.852Z,56.25
2023-04-29T00:14:58.380Z,56.31
2023-04-29T00:17:25.260Z,56.66
2023-04-29T00:19:52.039Z,56.30
2023-04-29T00:22:19.022Z,56.42
2023-04-29T00:24:45.671Z,57.05
2023-04-29T00:27:13.412Z,56.88
2023-04-29T00:29:39.930Z,57.31
2023-04-29T00:32:06.418Z,57.13
2023-04-29T00:34:32.902Z,57.08
2023-04-29T00:36:59.349Z,57.16
2023-04-29T00:39:25.946Z,57.20
2023-04-29T00:41:52.956Z,57.35
2023-04-29T00:44:19.437Z,57.31
2023-04-29T00:46:45.976Z,57.33
2023-04-29T00:49:13.025Z,56.99
2023-04-29T00:51:40.728Z,57.26
2023-04-29T00:54:08.101Z,56.76
2023-04-29T00:56:35.898Z,56.79
2023-04-29T00:59:03.571Z,57.03
2023-04-29T01:01:30.605Z,56.68
2023-04-29T01:03:58.274Z,56.36
2023-04-29T01:06:41.964Z,56.91
2023-04-29T01:09:22.823Z,56.91
2023-04-29T01:12:06.781Z,56.61
2023-04-29T01:14:34.855Z,56.76
2023-04-29T01:17:06.445Z,56.78
2023-04-29T01:19:48.670Z,57.03
2023-04-29T01:22:17.571Z,56.54
2023-04-29T01:24:44.035Z,57.06
2023-04-29T01:27:30.188Z,57.39
2023-04-29T01:30:02.541Z,57.04
2023-04-29T01:32:44.059Z,57.43
2023-04-29T01:35:38.354Z,56.89
2023-04-29T01:38:34.282Z,57.12
2023-04-29T01:41:17.199Z,57.54
2023-04-29T01:43:47.789Z,57.21
2023-04-29T01:46:16.517Z,57.24
2023-04-29T01:48:43.528Z,57.68
2023-04-29T01:51:10.013Z,57.59
2023-04-29T01:53:36.449Z,57.46
2023-04-29T01:56:02.909Z,57.87
2023-04-29T01:58:29.537Z,57.26
2023-04-29T02:00:56.066Z,57.75
2023-04-29T02:03:22.876Z,58.03
2023-04-29T02:05:50.544Z,57.89
2023-04-29T02:08:20.081Z,57.76
2023-04-29T02:10:56.469Z,57.87
2023-04-29T02:13:23.115Z,58.57
2023-04-29T02:15:49.633Z,58.20
2023-04-29T02:18:16.606Z,57.97
2023-04-29T02:20:43.519Z,57.82
2023-04-29T02:23:09.997Z,57.55
2023-04-29T02:25:37.161Z,57.81
2023-04-29T02:28:03.677Z,57.88
2023-04-29T02:30:30.742Z,57.77
2023-04-29T02:32:57.262Z,57.66
2023-04-29T02:35:23.751Z,58.18
2023-04-29T02:37:50.189Z,57.92
2023-04-29T02:40:16.821Z,57.88
2023-04-29T02:42:43.264Z,57.50
2023-04-29T02:45:10.514Z,57.88
2023-04-29T02:47:37.279Z,58.36
2023-04-29T02:50:04.824Z,57.92
2023-04-29T02:52:31.321Z,58.21
2023-04-29T02:54:57.930Z,58.12
2023-04-29T02:57:24.395Z,57.23
2023-04-29T02:59:51.491Z,58.02
2023-04-29T03:02:18.524Z,58.25
2023-04-29T03:04:45.622Z,58.30
2023-04-29T03:07:12.132Z,58.11
2023-04-29T03:09:38.645Z,58.10
2023-04-29T03:12:05.272Z,58.16
2023-04-29T03:14:31.716Z,58.01
2023-04-29T03:16:58.390Z,58.34
2023-04-29T03:19:24.971Z,57.69
2023-04-29T03:21:53.395Z,58.15
2023-04-29T03:24:20.476Z,57.85
2023-04-29T03:26:47.398Z,57.43
2023-04-29T03:29:13.889Z,58.07
2023-04-29T03:31:40.525Z,58.30
2023-04-29T03:34:07.100Z,57.79
2023-04-29T03:36:33.603Z,57.70
2023-04-29T03:39:00.352Z,57.59
2023-04-29T03:41:27.023Z,57.71
2023-04-29T03:43:54.943Z,58.10
2023-04-29T03:46:21.759Z,57.89
2023-04-29T03:48:48.337Z,58.24
2023-04-29T03:51:14.987Z,57.70
2023-04-29T03:53:41.628Z,57.54
2023-04-29T03:56:08.171Z,57.43
2023-04-29T03:58:34.669Z,57.05
2023-04-29T04:01:01.442Z,57.00
2023-04-29T04:03:28.361Z,57.31
2023-04-29T04:05:54.999Z,57.20
2023-04-29T04:08:21.504Z,57.69
2023-04-29T04:10:48.065Z,57.62
2023-04-29T04:13:14.593Z,57.36
2023-04-29T04:15:42.359Z,57.13
2023-04-29T04:18:08.891Z,57.01
2023-04-29T04:20:38.599Z,57.38
2023-04-29T04:23:05.593Z,57.35
2023-04-29T04:25:32.043Z,56.40
2023-04-29T04:27:58.593Z,55.80
2023-04-29T04:30:25.107Z,56.01
2023-04-29T04:32:51.713Z,55.36
2023-04-29T04:35:18.704Z,55.86
2023-04-29T04:37:45.525Z,55.94
2023-04-29T04:40:13.742Z,55.22
2023-04-29T04:42:40.331Z,55.32
2023-04-29T04:45:07.477Z,55.02
2023-04-29T04:47:33.974Z,55.20
2023-04-29T04:50:00.538Z,54.95
2023-04-29T04:52:27.143Z,54.56
2023-04-29T04:54:53.662Z,54.78
2023-04-29T04:57:20.203Z,54.48
2023-04-29T04:59:46.719Z,53.58
2023-04-29T05:02:13.227Z,53.56
2023-04-29T05:04:39.715Z,53.65
2023-04-29T05:07:06.178Z,53.23
2023-04-29T05:09:32.938Z,54.02
2023-04-29T05:11:59.601Z,53.09
2023-04-29T05:14:26.579Z,52.72
2023-04-29T05:16:53.510Z,53.24
2023-04-29T05:19:20.247Z,52.88
2023-04-29T05:21:46.745Z,52.32
2023-04-29T05:24:13.214Z,52.08
2023-04-29T05:26:39.698Z,51.75
2023-04-29T05:29:06.235Z,52.20
2023-04-29T05:31:33.475Z,52.23
2023-04-29T05:34:00.026Z,51.38
2023-04-29T05:36:28.026Z,51.55
2023-04-29T05:38:54.573Z,50.78
2023-04-29T05:41:21.432Z,51.02
2023-04-29T05:43:47.992Z,50.75
2023-04-29T05:46:14.545Z,51.11
2023-04-29T05:48:41.256Z,49.63
2023-04-29T05:51:07.837Z,50.11
2023-04-29T05:53:35.750Z,50.31
2023-04-29T05:56:06.544Z,48.76
2023-04-29T05:58:33.278Z,48.87
2023-04-29T06:01:00.264Z,48.82
2023-04-29T06:03:27.425Z,48.50
2023-04-29T06:05:54.198Z,46.86
2023-04-29T06:08:21.247Z,44.88
2023-04-29T06:10:47.896Z,43.47
2023-04-29T06:13:14.345Z,41.75
2023-04-29T06:15:40.927Z,40.38
2023-04-29T06:18:07.474Z,40.40
2023-04-29T06:20:36.084Z,39.55
2023-04-29T06:23:05.253Z,39.58
2023-04-29T06:25:31.816Z,38.44
2023-04-29T06:27:58.598Z,37.40
2023-04-29T06:30:25.281Z,36.63
2023-04-29T06:32:51.864Z,37.09
2023-04-29T06:35:18.542Z,36.49
2023-04-29T06:37:45.212Z,34.73
2023-04-29T06:40:12.000Z,34.36
2023-04-29T06:42:38.716Z,33.32
2023-04-29T06:45:05.833Z,34.24
2023-04-29T06:47:33.043Z,34.29
2023-04-29T06:49:59.667Z,33.12
2023-04-29T06:52:26.316Z,33.32
2023-04-29T06:54:52.852Z,32.48
2023-04-29T06:57:20.752Z,33.96
2023-04-29T06:59:47.331Z,34.82
2023-04-29T07:02:13.919Z,35.13
2023-04-29T07:04:41.076Z,32.57
2023-04-29T07:07:07.697Z,33.10
2023-04-29T07:09:34.213Z,31.33
2023-04-29T07:12:03.597Z,31.99
2023-04-29T07:14:30.500Z,33.30
2023-04-29T07:16:57.155Z,32.84
2023-04-29T07:19:23.837Z,32.70
2023-04-29T07:21:50.291Z,32.28
2023-04-29T07:24:16.868Z,32.32
2023-04-29T07:26:45.266Z,30.70
2023-04-29T07:29:11.831Z,31.42
2023-04-29T07:31:38.653Z,31.89
2023-04-29T07:34:05.990Z,30.25
2023-04-29T07:36:33.060Z,30.46
2023-04-29T07:38:59.907Z,30.81
2023-04-29T07:41:27.265Z,29.55
2023-04-29T07:43:53.899Z,31.45
2023-04-29T07:46:20.606Z,30.94
2023-04-29T07:48:47.196Z,30.75
2023-04-29T07:51:14.614Z,32.95
2023-04-29T07:53:41.674Z,33.20
2023-04-29T07:56:08.720Z,31.93
2023-04-29T07:58:35.413Z,32.91
2023-04-29T08:01:12.259Z,32.83
2023-04-29T08:03:41.433Z,32.80
2023-04-29T08:06:08.896Z,33.61
2023-04-29T08:08:35.804Z,33.53
2023-04-29T08:11:02.333Z,33.57
2023-04-29T08:13:28.922Z,33.53
2023-04-29T08:15:55.793Z,32.99
2023-04-29T08:18:22.418Z,32.64
2023-04-29T08:20:52.045Z,33.24
2023-04-29T08:23:18.756Z,32.73
2023-04-29T08:25:45.845Z,33.12
2023-04-29T08:28:12.366Z,33.65
2023-04-29T08:30:41.738Z,33.68
2023-04-29T08:33:08.967Z,33.88
2023-04-29T08:35:38.897Z,34.52
2023-04-29T08:38:06.750Z,33.91
2023-04-29T08:40:44.043Z,34.40
2023-04-29T08:43:10.830Z,34.14
2023-04-29T08:45:37.757Z,34.38
2023-04-29T08:48:04.816Z,33.99
2023-04-29T08:50:31.854Z,34.60
2023-04-29T08:52:58.600Z,34.85
2023-04-29T08:55:26.251Z,34.68
2023-04-29T08:57:55.106Z,34.42
2023-04-29T09:00:22.682Z,33.59
2023-04-29T09:02:54.185Z,33.97
2023-04-29T09:05:21.998Z,34.48
2023-04-29T09:07:48.906Z,34.00
2023-04-29T09:10:16.963Z,35.25
2023-04-29T09:12:43.643Z,35.09
2023-04-29T09:15:10.755Z,35.09
2023-04-29T09:17:42.656Z,35.28
2023-04-29T09:20:21.360Z,35.61
2023-04-29T09:22:52.730Z,35.44
2023-04-29T09:25:19.842Z,35.65
2023-04-29T09:27:46.808Z,35.46
2023-04-29T09:30:13.953Z,35.56
2023-04-29T09:32:41.145Z,35.50
2023-04-29T09:35:27.712Z,35.77
2023-04-29T09:38:08.980Z,35.72
2023-04-29T09:40:46.586Z,37.38
2023-04-29T09:43:23.992Z,36.26
2023-04-29T09:45:50.802Z,36.05
2023-04-29T09:48:17.445Z,36.54
2023-04-29T09:50:45.033Z,35.72
2023-04-29T09:53:12.077Z,35.95
2023-04-29T09:55:53.545Z,36.50
2023-04-29T09:58:31.449Z,36.10
2023-04-29T10:01:01.708Z,35.86
2023-04-29T10:03:33.880Z,36.20
2023-04-29T10:06:01.805Z,36.02
2023-04-29T10:08:32.393Z,34.97
2023-04-29T10:11:03.408Z,35.42
2023-04-29T10:13:30.615Z,36.65
2023-04-29T10:16:08.827Z,36.95
2023-04-29T10:18:37.754Z,36.83
2023-04-29T10:21:08.009Z,36.53
2023-04-29T10:23:34.602Z,36.29
2023-04-29T10:26:01.390Z,36.33
2023-04-29T10:28:32.550Z,36.82
2023-04-29T10:31:05.075Z,36.55
2023-04-29T10:33:33.834Z,37.83
2023-04-29T10:36:01.204Z,36.92
2023-04-29T10:38:41.776Z,36.15
2023-04-29T10:41:14.454Z,35.75
2023-04-29T10:43:41.050Z,36.35
2023-04-29T10:46:16.331Z,35.85
2023-04-29T10:48:46.857Z,35.04
2023-04-29T10:51:14.377Z,35.81
2023-04-29T10:54:01.225Z,35.85
2023-04-29T10:56:54.167Z,35.52
2023-04-29T10:59:22.870Z,36.32
2023-04-29T11:01:53.436Z,36.62
2023-04-29T11:04:21.694Z,36.15
2023-04-29T11:06:56.450Z,36.75
2023-04-29T11:09:31.312Z,37.64
2023-04-29T11:12:06.111Z,36.22
2023-04-29T11:14:43.032Z,36.64
2023-04-29T11:17:12.828Z,37.17
2023-04-29T11:19:47.125Z,37.08
2023-04-29T11:22:24.784Z,36.80
2023-04-29T11:24:57.330Z,36.78
2023-04-29T11:27:26.364Z,37.10
2023-04-29T11:29:58.714Z,36.99
2023-04-29T11:32:30.185Z,37.17
2023-04-29T11:35:08.947Z,37.16
2023-04-29T11:37:35.991Z,37.16
2023-04-29T11:40:08.721Z,37.69
2023-04-29T11:42:39.130Z,36.12
2023-04-29T11:45:06.925Z,36.42
2023-04-29T11:47:33.684Z,36.68
2023-04-29T11:50:04.958Z,34.99
2023-04-29T11:52:32.242Z,35.42
2023-04-29T11:55:00.208Z,35.60
2023-04-29T11:57:27.108Z,35.27
2023-04-29T11:59:53.844Z,34.82
2023-04-29T12:02:23.856Z,35.57
2023-04-29T12:04:51.400Z,35.19
2023-04-29T12:07:18.626Z,35.28
2023-04-29T12:09:46.277Z,34.32
2023-04-29T12:12:14.934Z,34.71
2023-04-29T12:14:42.355Z,34.39
2023-04-29T12:17:11.963Z,35.19
2023-04-29T12:19:40.255Z,36.25
2023-04-29T12:22:08.290Z,36.44
2023-04-29T12:24:39.273Z,36.40
2023-04-29T12:27:09.495Z,35.63
2023-04-29T12:29:40.605Z,36.35
2023-04-29T12:32:08.144Z,35.58
2023-04-29T12:34:34.847Z,36.79
2023-04-29T12:37:02.476Z,36.68
2023-04-29T12:39:30.096Z,35.82
2023-04-29T12:42:01.579Z,35.69
2023-04-29T12:44:36.043Z,35.60
2023-04-29T12:47:10.303Z,35.60
2023-04-29T12:49:46.905Z,35.48
2023-04-29T12:52:14.101Z,35.58
2023-04-29T12:54:43.369Z,35.82
2023-04-29T12:57:11.086Z,34.38
2023-04-29T12:59:38.416Z,35.73
2023-04-29T13:02:05.108Z,34.75
2023-04-29T13:04:31.803Z,34.97
2023-04-29T13:07:02.718Z,35.48
2023-04-29T13:09:30.505Z,35.63
2023-04-29T13:11:57.719Z,35.73
2023-04-29T13:14:24.275Z,35.66
2023-04-29T13:16:50.894Z,35.89
2023-04-29T13:19:29.589Z,35.34
2023-04-29T13:22:03.884Z,35.09
2023-04-29T13:24:30.690Z,34.69
2023-04-29T13:26:58.202Z,35.02
2023-04-29T13:29:24.838Z,34.01
2023-04-29T13:31:51.409Z,34.32
2023-04-29T13:34:18.040Z,34.26
2023-04-29T13:36:44.909Z,34.11
2023-04-29T13:39:11.516Z,34.63
2023-04-29T13:41:41.255Z,34.52
2023-04-29T13:44:23.583Z,34.44
2023-04-29T13:46:55.752Z,35.13
2023-04-29T13:49:55.790Z,35.64
2023-04-29T13:54:58.827Z,35.24
2023-04-29T13:58:30.308Z,35.19
2023-04-29T14:00:38.170Z,34.53
2023-04-29T14:05:33.366Z,34.37
2023-04-29T14:08:00.210Z,34.83
2023-04-29T14:10:26.781Z,34.66
2023-04-29T14:12:53.330Z,35.13
2023-04-29T14:15:19.863Z,35.03
2023-04-29T14:17:46.387Z,35.44
2023-04-29T14:20:13.536Z,36.15
2023-04-29T14:22:40.043Z,35.63
2023-04-29T14:25:08.005Z,35.19
2023-04-29T14:27:35.864Z,35.71
2023-04-29T14:30:02.406Z,35.36
2023-04-29T14:32:29.040Z,35.65
2023-04-29T14:34:55.947Z,36.07
2023-04-29T14:37:22.622Z,35.94
2023-04-29T14:39:49.243Z,35.83
2023-04-29T14:42:15.822Z,35.47
2023-04-29T14:44:42.402Z,35.89
2023-04-29T14:47:09.494Z,36.48
2023-04-29T14:49:36.202Z,37.65
2023-04-29T14:52:02.848Z,37.34
2023-04-29T14:54:29.499Z,37.08
2023-04-29T14:56:56.096Z,37.17
2023-04-29T14:59:22.665Z,37.15
2023-04-29T15:01:49.586Z,36.36
2023-04-29T15:04:16.703Z,36.44
2023-04-29T15:06:43.357Z,36.47
2023-04-29T15:09:09.925Z,35.90
2023-04-29T15:11:36.542Z,37.07
2023-04-29T15:14:03.151Z,38.06
2023-04-29T15:16:30.396Z,38.28
2023-04-29T15:18:57.014Z,38.09
2023-04-29T15:21:23.607Z,38.08
2023-04-29T15:23:50.193Z,38.47
2023-04-29T15:26:16.851Z,38.34
2023-04-29T15:28:45.661Z,37.33
2023-04-29T15:31:12.702Z,36.93
2023-04-29T15:33:39.301Z,37.54
2023-04-29T15:36:06.815Z,37.70
2023-04-29T15:38:33.332Z,37.41
2023-04-29T15:41:01.497Z,37.69
2023-04-29T15:43:28.676Z,37.68
2023-04-29T15:45:55.903Z,37.41
2023-04-29T15:48:22.452Z,37.35
2023-04-29T15:50:48.931Z,37.66
2023-04-29T15:53:15.585Z,37.48
2023-04-29T15:55:42.059Z,37.27
2023-04-29T15:58:08.638Z,37.61
2023-04-29T16:00:35.121Z,37.65
2023-04-29T16:03:01.680Z,37.93
2023-04-29T16:05:28.906Z,37.83
2023-04-29T16:07:55.435Z,38.02
2023-04-29T16:10:22.078Z,38.07
2023-04-29T16:12:49.045Z,37.88
2023-04-29T16:15:15.843Z,37.96
2023-04-29T16:17:49.373Z,38.34
2023-04-29T16:20:17.286Z,38.52
2023-04-29T16:22:43.967Z,38.70
2023-04-29T16:25:11.514Z,38.86
2023-04-29T16:27:38.001Z,39.24
2023-04-29T16:30:05.385Z,39.23
2023-04-29T16:32:33.126Z,39.20
2023-04-29T16:35:01.493Z,38.99
2023-04-29T16:37:28.664Z,38.90
2023-04-29T16:39:55.519Z,38.88
2023-04-29T16:42:22.070Z,39.18
2023-04-29T16:44:48.539Z,39.37
2023-04-29T16:47:15.323Z,39.63
2023-04-29T16:49:42.519Z,39.86
2023-04-29T16:52:09.261Z,39.87
2023-04-29T16:54:36.621Z,39.98
2023-04-29T16:57:03.196Z,40.26
2023-04-29T16:59:30.440Z,40.56
2023-04-29T17:01:57.279Z,40.73
2023-04-29T17:04:23.990Z,40.41
2023-04-29T17:06:51.017Z,40.74
2023-04-29T17:09:17.868Z,41.42
2023-04-29T17:11:44.430Z,43.59
2023-04-29T17:14:11.176Z,46.18
2023-04-29T17:16:37.881Z,47.19
2023-04-29T17:19:04.498Z,48.64
2023-04-29T17:21:32.465Z,49.28
2023-04-29T17:23:59.217Z,49.61
2023-04-29T17:26:25.953Z,49.99
2023-04-29T17:28:52.763Z,50.64
2023-04-29T17:31:24.884Z,51.26
2023-04-29T17:34:04.984Z,51.07
2023-04-29T17:36:33.118Z,51.10
2023-04-29T17:38:59.782Z,50.94
2023-04-29T17:41:26.304Z,52.08
2023-04-29T17:43:53.249Z,51.55
2023-04-29T17:46:19.968Z,51.92
2023-04-29T17:48:46.554Z,51.57
2023-04-29T17:51:13.318Z,50.84
2023-04-29T17:53:39.857Z,51.69
2023-04-29T17:56:06.459Z,50.84
2023-04-29T17:58:33.011Z,49.24
2023-04-29T18:00:59.525Z,48.66
2023-04-29T18:03:27.543Z,49.00
2023-04-29T18:05:54.215Z,48.82
2023-04-29T18:08:21.245Z,49.02
2023-04-29T18:10:47.757Z,49.18
2023-04-29T18:13:14.388Z,49.09
2023-04-29T18:15:40.890Z,49.32
2023-04-29T18:18:08.261Z,48.92
2023-04-29T18:20:35.362Z,48.91
2023-04-29T18:23:01.858Z,49.35
2023-04-29T18:25:28.347Z,48.96
2023-04-29T18:28:07.776Z,49.52
2023-04-29T18:30:42.300Z,49.82
2023-04-29T18:33:09.006Z,49.47
2023-04-29T18:35:35.553Z,49.25
2023-04-29T18:38:02.427Z,49.52
2023-04-29T18:40:29.200Z,49.32
2023-04-29T18:42:55.726Z,49.59
2023-04-29T18:45:22.829Z,49.86
2023-04-29T18:47:49.545Z,49.80
2023-04-29T18:50:16.109Z,49.95
2023-04-29T18:52:42.610Z,49.79
2023-04-29T18:55:09.442Z,50.29
2023-04-29T18:57:35.992Z,50.16
2023-04-29T19:00:03.846Z,50.40
2023-04-29T19:02:30.640Z,50.40
2023-04-29T19:04:57.326Z,50.30
2023-04-29T19:07:23.925Z,50.63
2023-04-29T19:09:50.563Z,51.02
2023-04-29T19:12:17.052Z,50.85
2023-04-29T19:14:43.544Z,50.94
2023-04-29T19:17:10.729Z,51.23
2023-04-29T19:19:37.216Z,50.91
2023-04-29T19:22:05.261Z,51.27
2023-04-29T19:24:32.711Z,51.29
2023-04-29T19:26:59.170Z,51.44
2023-04-29T19:29:25.737Z,51.54
2023-04-29T19:31:52.997Z,51.46
2023-04-29T19:34:19.628Z,51.29
2023-04-29T19:36:46.195Z,51.25
2023-04-29T19:39:14.459Z,51.33
2023-04-29T19:41:41.127Z,51.62
2023-04-29T19:44:07.632Z,51.64
2023-04-29T19:46:34.345Z,51.90
2023-04-29T19:49:01.825Z,52.49
2023-04-29T19:51:28.490Z,53.05
2023-04-29T19:53:56.717Z,53.27
2023-04-29T19:56:23.352Z,53.98
2023-04-29T19:58:50.404Z,54.27
2023-04-29T20:01:17.346Z,54.08
2023-04-29T20:03:43.988Z,54.70
2023-04-29T20:06:11.010Z,54.48
2023-04-29T20:08:37.698Z,54.69
2023-04-29T20:11:04.714Z,55.72
2023-04-29T20:13:31.247Z,55.67
2023-04-29T20:15:57.882Z,56.19
2023-04-29T20:18:25.113Z,55.67
2023-04-29T20:20:51.754Z,56.15
2023-04-29T20:23:18.470Z,56.31
2023-04-29T20:25:45.014Z,56.01
2023-04-29T20:28:11.634Z,55.99
2023-04-29T20:30:38.242Z,56.24
2023-04-29T20:33:05.839Z,55.93
2023-04-29T20:35:33.509Z,55.86
2023-04-29T20:38:00.318Z,55.87
2023-04-29T20:40:26.798Z,56.52
2023-04-29T20:42:53.277Z,56.24
2023-04-29T20:45:19.739Z,56.47
2023-04-29T20:47:46.828Z,55.58
2023-04-29T20:50:13.414Z,55.47
2023-04-29T20:52:40.376Z,54.96
2023-04-29T20:55:06.912Z,55.24
2023-04-29T20:57:33.447Z,55.53
2023-04-29T20:59:59.987Z,55.82
2023-04-29T21:02:26.459Z,55.90
2023-04-29T21:04:52.976Z,56.41
2023-04-29T21:07:19.651Z,56.81
2023-04-29T21:09:48.562Z,56.76
2023-04-29T21:12:15.271Z,57.32
2023-04-29T21:14:42.728Z,57.99
2023-04-29T21:17:09.419Z,57.53
2023-04-29T21:19:37.466Z,58.07
2023-04-29T21:22:04.519Z,58.19
2023-04-29T21:24:31.527Z,58.46
2023-04-29T21:26:58.204Z,58.62
2023-04-29T21:29:24.685Z,58.78
2023-04-29T21:31:51.249Z,59.17
2023-04-29T21:34:17.873Z,59.42
2023-04-29T21:36:44.349Z,59.09
2023-04-29T21:39:11.671Z,59.61
2023-04-29T21:41:39.153Z,59.37
2023-04-29T21:44:06.780Z,60.00
2023-04-29T21:46:34.454Z,60.02
2023-04-29T21:49:01.410Z,59.85
2023-04-29T21:51:28.989Z,60.13
2023-04-29T21:53:55.538Z,60.94
2023-04-29T21:56:24.423Z,61.16
2023-04-29T21:58:51.047Z,61.47
2023-04-29T22:01:27.044Z,61.69
2023-04-29T22:03:54.989Z,60.93
2023-04-29T22:06:21.512Z,61.03
2023-04-29T22:08:48.553Z,61.23
2023-04-29T22:11:15.155Z,61.94
2023-04-29T22:13:42.040Z,61.87
2023-04-29T22:16:08.686Z,61.46
2023-04-29T22:18:35.468Z,61.96
2023-04-29T22:21:02.015Z,61.59
2023-04-29T22:23:28.571Z,61.67
2023-04-29T22:25:55.077Z,61.89
2023-04-29T22:28:21.629Z,62.05
2023-04-29T22:30:48.123Z,61.96
2023-04-29T22:33:15.158Z,61.79
2023-04-29T22:35:41.711Z,62.11
2023-04-29T22:38:08.238Z,62.40
2023-04-29T22:40:35.661Z,62.36
2023-04-29T22:43:03.517Z,62.63
2023-04-29T22:45:30.020Z,63.15
2023-04-29T22:47:56.630Z,62.94
2023-04-29T22:50:23.139Z,63.66
2023-04-29T22:52:49.636Z,65.51
2023-04-29T22:55:16.238Z,65.61
2023-04-29T22:57:42.821Z,67.10
2023-04-29T23:00:09.888Z,68.01
2023-04-29T23:02:36.515Z,70.44
2023-04-29T23:05:03.739Z,73.10
2023-04-29T23:07:30.344Z,73.65
2023-04-29T23:09:57.126Z,73.27
2023-04-29T23:12:24.756Z,73.16
2023-04-29T23:14:51.348Z,73.63
2023-04-29T23:17:17.909Z,74.18
2023-04-29T23:19:44.466Z,74.60
2023-04-29T23:22:10.969Z,74.55
2023-04-29T23:24:38.263Z,74.86
2023-04-29T23:27:04.794Z,75.79
2023-04-29T23:29:35.135Z,76.79
2023-04-29T23:32:01.653Z,76.87
2023-04-29T23:34:28.171Z,76.35
2023-04-29T23:36:54.696Z,76.94
2023-04-29T23:39:21.279Z,77.94
2023-04-29T23:41:47.777Z,78.45
2023-04-29T23:44:14.281Z,78.67
2023-04-29T23:46:40.880Z,78.98
2023-04-29T23:49:07.403Z,78.96
2023-04-29T23:51:34.097Z,79.14
2023-04-29T23:54:00.917Z,78.96
2023-04-29T23:56:29.051Z,79.62
2023-04-29T23:58:55.694Z,79.15
